createdAt,value
2023-03-02T00:00:43.240Z,999.00
2023-03-02T00:01:43.237Z,998.98
2023-03-02T00:03:48.242Z,998.95
2023-03-02T00:04:47.137Z,998.99
2023-03-02T00:05:47.068Z,999.02
2023-03-02T00:07:23.371Z,999.03
2023-03-02T00:07:47.077Z,999.00
2023-03-02T00:08:47.073Z,998.99
2023-03-02T00:09:47.027Z,999.02
2023-03-02T00:10:47.041Z,999.05
2023-03-02T00:11:47.027Z,999.04
2023-03-02T00:12:47.002Z,999.01
2023-03-02T00:13:46.981Z,999.01
2023-03-02T00:14:46.998Z,999.13
2023-03-02T00:15:46.997Z,999.15
2023-03-02T00:16:46.987Z,999.05
2023-03-02T00:17:46.945Z,999.03
2023-03-02T00:18:46.928Z,999.10
2023-03-02T00:19:46.988Z,999.10
2023-03-02T00:20:46.899Z,999.02
2023-03-02T00:21:46.917Z,999.03
2023-03-02T00:22:46.919Z,998.99
2023-03-02T00:23:46.870Z,999.02
2023-03-02T00:24:46.898Z,998.95
2023-03-02T00:25:46.866Z,998.96
2023-03-02T00:26:46.881Z,998.92
2023-03-02T00:27:46.849Z,998.91
2023-03-02T00:28:46.849Z,998.90
2023-03-02T00:29:46.840Z,998.84
2023-03-02T00:30:46.825Z,998.91
2023-03-02T00:31:46.859Z,998.89
2023-03-02T00:32:46.820Z,998.85
2023-03-02T00:33:46.837Z,998.87
2023-03-02T00:34:46.782Z,998.80
2023-03-02T00:35:46.845Z,998.96
2023-03-02T00:36:46.745Z,998.95
2023-03-02T00:37:46.742Z,998.92
2023-03-02T00:38:46.749Z,998.88
2023-03-02T00:39:46.775Z,998.88
2023-03-02T00:40:46.687Z,998.92
2023-03-02T00:41:46.726Z,998.84
2023-03-02T00:42:46.717Z,998.88
2023-03-02T00:43:46.686Z,998.96
2023-03-02T00:44:46.672Z,998.97
2023-03-02T00:45:46.662Z,998.85
2023-03-02T00:46:46.764Z,998.84
2023-03-02T00:47:46.653Z,998.83
2023-03-02T00:48:46.647Z,998.84
2023-03-02T00:49:46.649Z,998.93
2023-03-02T00:50:46.619Z,998.86
2023-03-02T00:51:46.593Z,998.87
2023-03-02T00:52:46.607Z,998.93
2023-03-02T00:53:46.615Z,998.90
2023-03-02T00:54:46.562Z,998.95
2023-03-02T00:55:46.535Z,998.91
2023-03-02T00:56:46.526Z,998.90
2023-03-02T00:57:46.535Z,998.88
2023-03-02T00:58:46.519Z,998.81
2023-03-02T00:59:46.539Z,998.82
2023-03-02T01:00:46.538Z,998.78
2023-03-02T01:01:46.473Z,998.83
2023-03-02T01:02:46.646Z,998.77
2023-03-02T01:03:46.463Z,998.75
2023-03-02T01:04:46.497Z,998.84
2023-03-02T01:05:46.443Z,998.73
2023-03-02T01:06:46.434Z,998.76
2023-03-02T01:07:46.413Z,998.76
2023-03-02T01:08:46.433Z,998.75
2023-03-02T01:09:46.424Z,998.79
2023-03-02T01:10:46.383Z,998.74
2023-03-02T01:11:46.378Z,998.70
2023-03-02T01:12:46.399Z,998.74
2023-03-02T01:13:46.365Z,998.65
2023-03-02T01:14:46.437Z,998.66
2023-03-02T01:15:46.410Z,998.64
2023-03-02T01:16:46.338Z,998.66
2023-03-02T01:17:46.327Z,998.67
2023-03-02T01:18:46.339Z,998.73
2023-03-02T01:19:46.338Z,998.59
2023-03-02T01:20:46.279Z,998.67
2023-03-02T01:21:46.258Z,998.63
2023-03-02T01:22:46.290Z,998.59
2023-03-02T01:23:46.284Z,998.57
2023-03-02T01:24:46.266Z,998.52
2023-03-02T01:25:46.267Z,998.57
2023-03-02T01:26:46.224Z,998.63
2023-03-02T01:27:46.249Z,998.48
2023-03-02T01:28:46.241Z,998.44
2023-03-02T01:29:46.219Z,998.57
2023-03-02T01:30:46.247Z,998.50
2023-03-02T01:31:46.259Z,998.41
2023-03-02T01:32:46.250Z,998.52
2023-03-02T01:33:46.169Z,998.47
2023-03-02T01:34:46.184Z,998.38
2023-03-02T01:35:46.190Z,998.37
2023-03-02T01:36:46.170Z,998.38
2023-03-02T01:37:46.169Z,998.38
2023-03-02T01:38:46.177Z,998.38
2023-03-02T01:39:46.122Z,998.39
2023-03-02T01:40:46.141Z,998.39
2023-03-02T01:41:46.130Z,998.47
2023-03-02T01:42:46.077Z,998.54
2023-03-02T01:43:46.110Z,998.42
2023-03-02T01:44:46.048Z,998.47
2023-03-02T01:45:46.089Z,998.54
2023-03-02T01:46:46.021Z,998.51
2023-03-02T01:47:46.039Z,998.47
2023-03-02T01:48:45.995Z,998.55
2023-03-02T01:49:46.014Z,998.56
2023-03-02T01:50:45.991Z,998.48
2023-03-02T01:51:45.995Z,998.49
2023-03-02T01:52:45.971Z,998.44
2023-03-02T01:53:46.051Z,998.48
2023-03-02T01:54:45.929Z,998.53
2023-03-02T01:55:46.015Z,998.53
2023-03-02T01:56:45.924Z,998.60
2023-03-02T01:57:45.935Z,998.58
2023-03-02T01:58:45.881Z,998.55
2023-03-02T01:59:45.877Z,998.55
2023-03-02T02:00:45.959Z,998.54
2023-03-02T02:01:45.918Z,998.57
2023-03-02T02:02:45.876Z,998.56
2023-03-02T02:03:45.897Z,998.51
2023-03-02T02:04:45.857Z,998.62
2023-03-02T02:05:45.836Z,998.56
2023-03-02T02:06:45.833Z,998.56
2023-03-02T02:07:45.816Z,998.50
2023-03-02T02:08:45.806Z,998.51
2023-03-02T02:09:45.771Z,998.42
2023-03-02T02:10:45.820Z,998.43
2023-03-02T02:11:45.783Z,998.40
2023-03-02T02:12:45.759Z,998.38
2023-03-02T02:13:45.773Z,998.37
2023-03-02T02:14:45.741Z,998.40
2023-03-02T02:15:45.735Z,998.48
2023-03-02T02:16:45.768Z,998.41
2023-03-02T02:17:45.745Z,998.46
2023-03-02T02:18:45.728Z,998.39
2023-03-02T02:19:45.717Z,998.43
2023-03-02T02:20:45.723Z,998.39
2023-03-02T02:21:45.721Z,998.33
2023-03-02T02:22:45.651Z,998.42
2023-03-02T02:23:45.623Z,998.36
2023-03-02T02:24:45.620Z,998.38
2023-03-02T02:25:45.672Z,998.38
2023-03-02T02:26:45.654Z,998.39
2023-03-02T02:27:45.598Z,998.38
2023-03-02T02:28:45.595Z,998.44
2023-03-02T02:29:45.559Z,998.40
2023-03-02T02:30:45.621Z,998.40
2023-03-02T02:31:45.599Z,998.39
2023-03-02T02:32:45.623Z,998.36
2023-03-02T02:33:45.532Z,998.39
2023-03-02T02:34:45.520Z,998.29
2023-03-02T02:35:45.584Z,998.31
2023-03-02T02:36:45.505Z,998.32
2023-03-02T02:37:45.501Z,998.26
2023-03-02T02:38:45.481Z,998.30
2023-03-02T02:39:45.483Z,998.27
2023-03-02T02:40:45.483Z,998.26
2023-03-02T02:41:45.501Z,998.28
2023-03-02T02:42:45.426Z,998.16
2023-03-02T02:43:45.444Z,998.15
2023-03-02T02:44:45.474Z,998.16
2023-03-02T02:45:45.458Z,998.15
2023-03-02T02:46:45.395Z,998.11
2023-03-02T02:47:45.368Z,998.08
2023-03-02T02:48:45.360Z,998.10
2023-03-02T02:49:45.357Z,998.14
2023-03-02T02:50:45.350Z,998.25
2023-03-02T02:51:45.364Z,998.22
2023-03-02T02:52:45.314Z,998.09
2023-03-02T02:53:45.318Z,998.12
2023-03-02T02:54:45.300Z,998.16
2023-03-02T02:55:45.296Z,998.09
2023-03-02T02:56:45.305Z,998.13
2023-03-02T02:57:45.292Z,998.16
2023-03-02T02:58:45.261Z,998.00
2023-03-02T02:59:45.268Z,998.08
2023-03-02T03:00:45.257Z,998.05
2023-03-02T03:01:45.321Z,997.99
2023-03-02T03:02:45.255Z,998.21
2023-03-02T03:03:46.503Z,998.06
2023-03-02T03:04:46.469Z,998.11
2023-03-02T03:05:47.461Z,998.06
2023-03-02T03:06:46.458Z,998.11
2023-03-02T03:07:46.401Z,998.11
2023-03-02T03:08:46.417Z,998.12
2023-03-02T03:09:46.383Z,998.06
2023-03-02T03:10:46.361Z,998.02
2023-03-02T03:11:46.416Z,998.03
2023-03-02T03:12:46.391Z,998.14
2023-03-02T03:13:47.376Z,997.99
2023-03-02T03:14:46.328Z,998.01
2023-03-02T03:15:46.350Z,997.98
2023-03-02T03:16:46.500Z,997.97
2023-03-02T03:17:46.331Z,997.96
2023-03-02T03:18:46.260Z,997.97
2023-03-02T03:19:46.275Z,997.94
2023-03-02T03:20:46.323Z,997.99
2023-03-02T03:21:46.265Z,998.09
2023-03-02T03:22:46.288Z,997.95
2023-03-02T03:23:46.215Z,998.04
2023-03-02T03:24:46.214Z,997.93
2023-03-02T03:25:46.216Z,997.96
2023-03-02T03:26:46.237Z,997.93
2023-03-02T03:27:46.215Z,997.93
2023-03-02T03:28:46.265Z,997.91
2023-03-02T03:29:46.172Z,997.96
2023-03-02T03:30:46.206Z,997.94
2023-03-02T03:31:46.210Z,997.85
2023-03-02T03:32:46.226Z,997.98
2023-03-02T03:33:46.182Z,997.90
2023-03-02T03:34:46.114Z,997.93
2023-03-02T03:35:46.218Z,997.88
2023-03-02T03:36:46.155Z,997.99
2023-03-02T03:37:46.130Z,998.01
2023-03-02T03:38:46.138Z,997.90
2023-03-02T03:39:46.125Z,997.99
2023-03-02T03:40:46.131Z,997.93
2023-03-02T03:41:46.159Z,997.94
2023-03-02T03:42:46.041Z,997.89
2023-03-02T03:43:46.069Z,997.92
2023-03-02T03:44:46.064Z,997.84
2023-03-02T03:45:46.080Z,997.93
2023-03-02T03:46:46.055Z,997.92
2023-03-02T03:47:46.073Z,997.90
2023-03-02T03:48:46.028Z,997.88
2023-03-02T03:49:45.982Z,997.84
2023-03-02T03:50:46.034Z,997.88
2023-03-02T03:51:45.999Z,997.86
2023-03-02T03:52:45.998Z,997.80
2023-03-02T03:53:47.031Z,997.82
2023-03-02T03:54:45.914Z,997.85
2023-03-02T03:55:46.027Z,997.93
2023-03-02T03:56:45.954Z,997.92
2023-03-02T03:57:45.886Z,997.91
2023-03-02T03:58:45.967Z,997.90
2023-03-02T03:59:45.868Z,997.87
2023-03-02T04:00:45.881Z,997.95
2023-03-02T04:01:45.976Z,997.98
2023-03-02T04:02:45.916Z,997.88
2023-03-02T04:03:45.840Z,997.88
2023-03-02T04:04:45.843Z,997.91
2023-03-02T04:05:45.846Z,997.91
2023-03-02T04:06:45.791Z,997.92
2023-03-02T04:07:45.802Z,997.91
2023-03-02T04:08:45.775Z,997.98
2023-03-02T04:09:45.738Z,997.89
2023-03-02T04:10:45.746Z,997.91
2023-03-02T04:11:45.796Z,997.92
2023-03-02T04:12:45.795Z,997.98
2023-03-02T04:13:45.712Z,997.87
2023-03-02T04:14:45.737Z,997.91
2023-03-02T04:15:47.113Z,997.91
2023-03-02T04:16:46.788Z,997.97
2023-03-02T04:17:45.765Z,997.94
2023-03-02T04:18:45.734Z,997.91
2023-03-02T04:19:45.712Z,997.88
2023-03-02T04:20:45.721Z,997.91
2023-03-02T04:21:45.696Z,998.00
2023-03-02T04:22:45.752Z,997.85
2023-03-02T04:23:45.700Z,997.89
2023-03-02T04:24:45.677Z,997.83
2023-03-02T04:25:45.648Z,997.96
2023-03-02T04:26:45.704Z,997.88
2023-03-02T04:27:45.638Z,997.90
2023-03-02T04:28:45.604Z,997.82
2023-03-02T04:29:45.629Z,997.99
2023-03-02T04:30:45.663Z,997.96
2023-03-02T04:31:45.590Z,997.91
2023-03-02T04:32:45.595Z,997.99
2023-03-02T04:33:45.571Z,997.85
2023-03-02T04:34:45.622Z,997.91
2023-03-02T04:35:45.540Z,997.89
2023-03-02T04:36:45.560Z,997.97
2023-03-02T04:37:45.499Z,997.91
2023-03-02T04:38:45.536Z,997.97
2023-03-02T04:39:45.487Z,997.87
2023-03-02T04:40:45.520Z,997.87
2023-03-02T04:41:45.471Z,997.89
2023-03-02T04:42:45.523Z,997.88
2023-03-02T04:43:45.492Z,997.90
2023-03-02T04:44:46.494Z,997.99
2023-03-02T04:45:45.460Z,997.90
2023-03-02T04:46:45.485Z,997.98
2023-03-02T04:47:45.456Z,997.95
2023-03-02T04:48:45.469Z,997.96
2023-03-02T04:49:45.380Z,997.94
2023-03-02T04:50:45.394Z,997.90
2023-03-02T04:51:45.378Z,997.91
2023-03-02T04:52:45.410Z,998.01
2023-03-02T04:53:45.409Z,998.00
2023-03-02T04:54:45.375Z,997.97
2023-03-02T04:55:45.412Z,998.03
2023-03-02T04:56:45.346Z,998.06
2023-03-02T04:57:45.355Z,998.00
2023-03-02T04:58:45.342Z,998.03
2023-03-02T04:59:45.309Z,998.00
2023-03-02T05:00:45.323Z,997.99
2023-03-02T05:01:45.306Z,998.00
2023-03-02T05:02:45.280Z,998.08
2023-03-02T05:03:45.282Z,997.98
2023-03-02T05:04:45.360Z,998.05
2023-03-02T05:05:45.301Z,997.98
2023-03-02T05:06:45.325Z,998.01
2023-03-02T05:07:45.312Z,998.00
2023-03-02T05:08:45.260Z,998.00
2023-03-02T05:09:45.232Z,998.00
2023-03-02T05:10:45.238Z,998.04
2023-03-02T05:11:45.213Z,998.00
2023-03-02T05:12:45.208Z,997.98
2023-03-02T05:13:45.183Z,998.00
2023-03-02T05:14:45.854Z,998.01
2023-03-02T05:15:46.212Z,997.98
2023-03-02T05:16:45.174Z,998.10
2023-03-02T05:17:45.160Z,998.01
2023-03-02T05:18:45.174Z,998.02
2023-03-02T05:19:45.163Z,998.02
2023-03-02T05:20:45.102Z,998.07
2023-03-02T05:21:45.139Z,998.04
2023-03-02T05:22:45.145Z,998.10
2023-03-02T05:23:45.151Z,997.99
2023-03-02T05:24:45.111Z,998.05
2023-03-02T05:25:45.058Z,998.06
2023-03-02T05:26:45.175Z,998.06
2023-03-02T05:27:45.062Z,998.09
2023-03-02T05:28:45.074Z,998.13
2023-03-02T05:29:45.069Z,998.06
2023-03-02T05:30:45.085Z,998.08
2023-03-02T05:31:45.080Z,998.07
2023-03-02T05:32:45.026Z,998.07
2023-03-02T05:33:45.004Z,998.07
2023-03-02T05:34:44.996Z,998.14
2023-03-02T05:35:45.036Z,997.98
2023-03-02T05:36:44.964Z,998.06
2023-03-02T05:37:44.993Z,998.13
2023-03-02T05:38:44.965Z,998.08
2023-03-02T05:39:44.942Z,998.09
2023-03-02T05:40:45.917Z,998.16
2023-03-02T05:41:45.165Z,998.18
2023-03-02T05:42:44.924Z,998.13
2023-03-02T05:43:44.892Z,998.07
2023-03-02T05:44:44.888Z,998.19
2023-03-02T05:45:44.877Z,998.20
2023-03-02T05:46:45.006Z,998.27
2023-03-02T06:30:51.084Z,998.38
2023-03-02T06:31:36.721Z,998.37
2023-03-02T06:32:36.718Z,998.45
2023-03-02T06:41:42.397Z,998.44
2023-03-02T06:42:42.409Z,998.41
2023-03-02T06:43:42.649Z,998.40
2023-03-02T06:44:43.346Z,998.47
2023-03-02T06:45:42.500Z,998.40
2023-03-02T06:49:59.508Z,998.42
2023-03-02T06:50:34.402Z,998.40
2023-03-02T06:51:34.381Z,998.56
2023-03-02T06:53:08.554Z,998.50
2023-03-02T06:53:34.362Z,998.50
2023-03-02T06:54:34.292Z,998.38
2023-03-02T06:55:34.339Z,998.45
2023-03-02T06:56:34.705Z,998.31
2023-03-02T06:58:49.528Z,998.39
2023-03-02T06:59:47.255Z,998.32
2023-03-02T07:00:46.971Z,998.31
2023-03-02T07:02:22.855Z,998.28
2023-03-02T07:02:46.940Z,998.25
2023-03-02T07:03:46.928Z,998.30
2023-03-02T07:04:46.897Z,998.33
2023-03-02T07:05:46.862Z,998.30
2023-03-02T07:06:46.866Z,998.30
2023-03-02T07:07:46.850Z,998.40
2023-03-02T07:08:46.838Z,998.32
2023-03-02T07:47:55.145Z,998.27
2023-03-02T07:48:29.095Z,998.34
2023-03-02T07:49:29.080Z,998.32
2023-03-02T07:50:29.121Z,998.37
2023-03-02T07:51:29.057Z,998.40
2023-03-02T07:52:29.639Z,998.41
2023-03-02T07:53:29.064Z,998.30
2023-03-02T07:54:29.025Z,998.30
2023-03-02T07:55:29.026Z,998.41
2023-03-02T07:56:29.008Z,998.36
2023-03-02T07:57:28.996Z,998.32
2023-03-02T07:58:29.033Z,998.31
2023-03-02T07:59:28.989Z,998.31
2023-03-02T08:00:29.093Z,998.29
2023-03-02T08:01:29.048Z,998.27
2023-03-02T08:02:28.969Z,998.35
2023-03-02T08:03:28.970Z,998.33
2023-03-02T08:04:28.926Z,998.40
2023-03-02T08:05:28.912Z,998.35
2023-03-02T08:06:28.912Z,998.34
2023-03-02T08:07:28.909Z,998.33
2023-03-02T08:08:28.931Z,998.30
2023-03-02T08:09:28.910Z,998.45
2023-03-02T08:10:28.885Z,998.33
2023-03-02T08:11:28.869Z,998.33
2023-03-02T08:12:28.909Z,998.30
2023-03-02T08:13:28.857Z,998.43
2023-03-02T08:14:28.853Z,998.42
2023-03-02T08:15:28.817Z,998.26
2023-03-02T08:16:28.828Z,998.46
2023-03-02T08:17:28.938Z,998.28
2023-03-02T08:18:28.799Z,998.35
2023-03-02T08:19:28.801Z,998.24
2023-03-02T08:20:29.185Z,998.24
2023-03-02T08:21:28.753Z,998.27
2023-03-02T08:28:21.467Z,998.32
2023-03-02T08:29:21.488Z,998.34
2023-03-02T08:30:21.484Z,998.30
2023-03-02T08:31:21.530Z,998.26
2023-03-02T08:32:21.470Z,998.36
2023-03-02T08:33:21.526Z,998.26
2023-03-02T08:34:42.440Z,998.42
2023-03-02T08:35:21.415Z,998.44
2023-03-02T08:36:21.426Z,998.26
2023-03-02T08:37:21.385Z,998.37
2023-03-02T08:39:47.373Z,998.28
2023-03-02T08:40:47.353Z,998.35
2023-03-02T08:41:47.334Z,998.29
2023-03-02T08:42:47.320Z,998.38
2023-03-02T08:43:47.327Z,998.38
2023-03-02T08:44:47.304Z,998.39
2023-03-02T08:45:47.346Z,998.43
2023-03-02T08:46:47.291Z,998.33
2023-03-02T08:47:47.268Z,998.31
2023-03-02T08:48:47.262Z,998.31
2023-03-02T08:49:48.322Z,998.26
2023-03-02T08:50:47.233Z,998.21
2023-03-02T08:51:47.230Z,998.17
2023-03-02T08:52:47.219Z,998.30
2023-03-02T08:53:47.212Z,998.19
2023-03-02T08:54:47.217Z,998.26
2023-03-02T08:55:47.174Z,998.33
2023-03-02T08:56:47.178Z,998.25
2023-03-02T08:57:47.163Z,998.24
2023-03-02T08:58:47.161Z,998.25
2023-03-02T08:59:47.134Z,998.24
2023-03-02T09:00:47.222Z,998.31
2023-03-02T09:01:47.190Z,998.16
2023-03-02T09:02:47.111Z,998.14
2023-03-02T09:03:47.105Z,998.11
2023-03-02T09:04:47.092Z,998.14
2023-03-02T09:05:47.204Z,998.10
2023-03-02T09:07:48.116Z,998.15
2023-03-02T09:08:47.076Z,998.06
2023-03-02T09:09:47.044Z,998.11
2023-03-02T09:10:47.041Z,998.07
2023-03-02T09:11:47.026Z,998.07
2023-03-02T09:12:47.010Z,998.12
2023-03-02T09:13:47.047Z,998.06
2023-03-02T09:14:47.021Z,998.13
2023-03-02T09:19:13.213Z,998.05
2023-03-02T09:19:49.297Z,998.04
2023-03-02T09:20:49.168Z,997.97
2023-03-02T09:23:18.318Z,998.11
2023-03-02T09:24:15.261Z,997.97
2023-03-02T09:25:16.293Z,997.96
2023-03-02T09:26:15.127Z,997.96
2023-03-02T09:27:15.643Z,998.02
2023-03-02T09:28:15.079Z,998.05
2023-03-02T09:29:15.063Z,998.06
2023-03-02T09:30:15.046Z,998.07
2023-03-02T09:31:15.026Z,997.94
2023-03-02T09:32:15.113Z,998.02
2023-03-02T09:33:15.062Z,998.02
2023-03-02T09:34:15.011Z,998.04
2023-03-02T09:35:14.987Z,997.96
2023-03-02T09:36:14.981Z,998.06
2023-03-02T09:37:14.981Z,997.98
2023-03-02T09:38:15.033Z,997.97
2023-03-02T09:39:15.027Z,997.97
2023-03-02T09:40:14.959Z,997.93
2023-03-02T09:41:14.963Z,997.95
2023-03-02T09:42:14.931Z,997.91
2023-03-02T09:43:15.109Z,997.92
2023-03-02T09:44:14.941Z,998.00
2023-03-02T09:45:15.072Z,997.97
2023-03-02T09:46:14.939Z,997.93
2023-03-02T09:47:16.501Z,997.96
2023-03-02T09:48:14.927Z,997.81
2023-03-02T09:49:14.943Z,997.88
2023-03-02T09:56:29.038Z,997.90
2023-03-02T09:57:29.027Z,997.90
2023-03-02T09:58:29.009Z,997.92
2023-03-02T09:59:29.028Z,997.87
2023-03-02T10:00:29.041Z,997.92
2023-03-02T10:01:29.123Z,997.93
2023-03-02T10:02:28.966Z,997.83
2023-03-02T10:03:29.059Z,997.85
2023-03-02T10:04:29.097Z,997.83
2023-03-02T10:05:28.942Z,997.81
2023-03-02T10:06:28.972Z,997.85
2023-03-02T10:07:28.919Z,997.89
2023-03-02T10:08:28.901Z,997.86
2023-03-02T10:09:28.903Z,997.88
2023-03-02T10:10:28.884Z,997.91
2023-03-02T10:11:28.911Z,997.90
2023-03-02T10:12:28.879Z,997.83
2023-03-02T10:13:28.852Z,997.82
2023-03-02T10:14:29.005Z,997.82
2023-03-02T10:15:28.829Z,997.82
2023-03-02T10:16:28.906Z,997.76
2023-03-02T10:17:28.815Z,997.75
2023-03-02T10:18:28.851Z,997.83
2023-03-02T10:19:28.812Z,997.87
2023-03-02T10:20:34.142Z,997.82
2023-03-02T10:21:29.778Z,997.88
2023-03-02T10:22:28.789Z,997.84
2023-03-02T10:23:28.795Z,997.87
2023-03-02T10:24:29.224Z,997.82
2023-03-02T10:25:28.734Z,997.86
2023-03-02T10:26:28.716Z,997.87
2023-03-02T10:27:28.750Z,997.78
2023-03-02T10:28:28.732Z,997.81
2023-03-02T10:29:28.757Z,997.76
2023-03-02T10:30:28.699Z,997.83
2023-03-02T10:31:28.805Z,997.86
2023-03-02T10:32:28.727Z,997.78
2023-03-02T10:33:28.761Z,997.79
2023-03-02T10:34:28.686Z,997.76
2023-03-02T10:35:28.680Z,997.74
2023-03-02T10:36:28.663Z,997.75
2023-03-02T10:37:28.631Z,997.84
2023-03-02T10:38:28.636Z,997.85
2023-03-02T10:39:28.661Z,997.75
2023-03-02T10:40:28.686Z,997.82
2023-03-02T10:41:28.608Z,997.84
2023-03-02T10:42:28.622Z,997.80
2023-03-02T10:43:28.568Z,997.84
2023-03-02T10:44:28.543Z,997.79
2023-03-02T10:45:28.649Z,997.90
2023-03-02T10:46:28.612Z,997.79
2023-03-02T10:47:28.502Z,997.91
2023-03-02T10:48:28.583Z,997.83
2023-03-02T10:49:28.549Z,997.91
2023-03-02T10:50:28.523Z,997.86
2023-03-02T10:51:28.482Z,997.85
2023-03-02T10:52:28.535Z,997.86
2023-03-02T10:53:28.431Z,997.90
2023-03-02T10:54:28.428Z,997.84
2023-03-02T10:55:28.541Z,997.84
2023-03-02T10:56:28.460Z,997.79
2023-03-02T10:57:28.458Z,997.77
2023-03-02T10:58:28.421Z,997.76
2023-03-02T10:59:28.457Z,997.78
2023-03-02T11:00:28.441Z,997.72
2023-03-02T11:01:28.478Z,997.81
2023-03-02T11:02:28.362Z,997.88
2023-03-02T11:03:28.400Z,997.80
2023-03-02T11:04:28.407Z,997.62
2023-03-02T11:05:28.380Z,997.68
2023-03-02T11:06:28.335Z,997.70
2023-03-02T11:07:28.380Z,997.69
2023-03-02T11:08:28.328Z,997.70
2023-03-02T11:09:28.309Z,997.75
2023-03-02T11:10:28.268Z,997.73
2023-03-02T11:11:28.330Z,997.66
2023-03-02T11:12:28.241Z,997.67
2023-03-02T11:13:28.246Z,997.68
2023-03-02T11:14:28.205Z,997.62
2023-03-02T11:15:28.235Z,997.74
2023-03-02T11:16:28.433Z,997.75
2023-03-02T11:17:28.185Z,997.83
2023-03-02T11:18:28.184Z,997.67
2023-03-02T11:19:28.169Z,997.75
2023-03-02T11:20:28.225Z,997.66
2023-03-02T11:21:28.144Z,997.72
2023-03-02T11:22:28.204Z,997.75
2023-03-02T11:23:28.183Z,997.63
2023-03-02T11:24:28.161Z,997.64
2023-03-02T11:25:28.142Z,997.64
2023-03-02T11:26:42.821Z,997.63
2023-03-02T11:27:28.091Z,997.71
2023-03-02T11:28:28.094Z,997.70
2023-03-02T11:29:28.075Z,997.69
2023-03-02T11:30:28.071Z,997.61
2023-03-02T11:31:28.102Z,997.60
2023-03-02T11:32:28.141Z,997.46
2023-03-02T11:33:51.342Z,997.53
2023-03-02T11:37:32.260Z,997.44
2023-03-02T11:38:32.022Z,997.39
2023-03-02T11:39:32.018Z,997.43
2023-03-02T11:40:32.001Z,997.41
2023-03-02T11:41:32.250Z,997.39
2023-03-02T11:42:32.079Z,997.42
2023-03-02T11:43:31.970Z,997.28
2023-03-02T11:44:31.958Z,997.29
2023-03-02T11:45:31.962Z,997.39
2023-03-02T11:46:31.959Z,997.36
2023-03-02T11:47:31.942Z,997.37
2023-03-02T11:48:31.934Z,997.25
2023-03-02T11:49:31.908Z,997.25
2023-03-02T11:50:31.936Z,997.21
2023-03-02T11:51:32.202Z,997.29
2023-03-02T11:52:31.905Z,997.19
2023-03-02T11:53:31.882Z,997.15
2023-03-02T11:54:31.856Z,997.20
2023-03-02T11:55:31.857Z,997.23
2023-03-02T11:56:31.845Z,997.18
2023-03-02T11:57:40.105Z,997.20
2023-03-02T11:58:40.897Z,997.19
2023-03-02T11:59:31.909Z,997.11
2023-03-02T12:00:33.306Z,997.10
2023-03-02T12:01:33.319Z,997.16
2023-03-02T12:02:32.961Z,997.14
2023-03-02T12:03:32.958Z,997.07
2023-03-02T12:04:32.972Z,997.04
2023-03-02T12:05:32.972Z,997.10
2023-03-02T12:06:33.226Z,997.12
2023-03-02T12:07:32.906Z,997.09
2023-03-02T12:08:32.952Z,997.09
2023-03-02T12:09:32.893Z,997.10
2023-03-02T12:10:32.904Z,997.04
2023-03-02T12:11:32.890Z,997.01
2023-03-02T12:12:32.898Z,997.05
2023-03-02T12:13:32.848Z,996.98
2023-03-02T12:14:32.866Z,997.00
2023-03-02T12:15:32.874Z,997.00
2023-03-02T12:16:33.099Z,997.01
2023-03-02T12:17:32.875Z,996.96
2023-03-02T12:18:32.830Z,996.98
2023-03-02T12:19:32.793Z,997.02
2023-03-02T12:20:33.726Z,996.92
2023-03-02T12:21:32.852Z,996.93
2023-03-02T12:22:32.773Z,996.92
2023-03-02T12:23:32.778Z,996.95
2023-03-02T12:24:32.828Z,996.89
2023-03-02T12:25:32.762Z,996.91
2023-03-02T12:26:34.040Z,996.92
2023-03-02T12:27:32.734Z,996.85
2023-03-02T12:28:32.730Z,996.94
2023-03-02T12:29:32.799Z,996.83
2023-03-02T12:30:32.893Z,996.75
2023-03-02T12:31:32.694Z,996.76
2023-03-02T12:32:32.712Z,996.74
2023-03-02T12:33:32.664Z,996.71
2023-03-02T12:34:32.665Z,996.74
2023-03-02T12:35:33.093Z,996.71
2023-03-02T12:36:33.110Z,996.67
2023-03-02T12:37:32.626Z,996.75
2023-03-02T12:38:32.638Z,996.68
2023-03-02T12:39:32.629Z,996.65
2023-03-02T12:40:32.575Z,996.64
2023-03-02T12:41:32.581Z,996.57
2023-03-02T12:42:32.584Z,996.57
2023-03-02T12:43:32.551Z,996.60
2023-03-02T12:44:32.562Z,996.63
2023-03-02T12:45:32.599Z,996.69
2023-03-02T12:46:32.951Z,996.60
2023-03-02T12:47:32.870Z,996.52
2023-03-02T12:48:32.564Z,996.56
2023-03-02T12:49:32.492Z,996.55
2023-03-02T12:50:32.566Z,996.54
2023-03-02T12:51:32.626Z,996.46
2023-03-02T12:52:32.574Z,996.51
2023-03-02T12:53:32.465Z,996.46
2023-03-02T12:54:32.464Z,996.52
2023-03-02T12:55:32.497Z,996.50
2023-03-02T12:56:32.474Z,996.52
2023-03-02T12:57:32.421Z,996.52
2023-03-02T12:58:32.397Z,996.54
2023-03-02T12:59:32.404Z,996.55
2023-03-02T13:00:32.397Z,996.47
2023-03-02T13:01:32.402Z,996.53
2023-03-02T13:02:32.408Z,996.43
2023-03-02T13:03:32.340Z,996.39
2023-03-02T13:04:32.482Z,996.39
2023-03-02T13:05:32.325Z,996.44
2023-03-02T13:06:32.533Z,996.35
2023-03-02T13:07:32.300Z,996.40
2023-03-02T13:08:32.340Z,996.33
2023-03-02T13:09:32.270Z,996.39
2023-03-02T13:10:32.289Z,996.35
2023-03-02T13:11:32.244Z,996.35
2023-03-02T13:12:32.267Z,996.35
2023-03-02T13:13:32.362Z,996.32
2023-03-02T13:14:32.217Z,996.32
2023-03-02T13:15:32.229Z,996.27
2023-03-02T13:16:32.875Z,996.21
2023-03-02T13:17:32.234Z,996.23
2023-03-02T13:18:32.302Z,996.27
2023-03-02T13:19:32.197Z,996.25
2023-03-02T13:20:32.176Z,996.21
2023-03-02T13:21:32.160Z,996.22
2023-03-02T13:22:32.275Z,996.21
2023-03-02T13:23:32.195Z,996.23
2023-03-02T13:24:32.138Z,996.23
2023-03-02T13:25:32.127Z,996.12
2023-03-02T13:26:32.495Z,996.18
2023-03-02T13:27:32.124Z,996.21
2023-03-02T13:28:33.103Z,996.13
2023-03-02T13:29:32.137Z,996.28
2023-03-02T13:30:32.202Z,996.20
2023-03-02T13:31:32.230Z,996.20
2023-03-02T13:32:32.185Z,996.19
2023-03-02T13:33:32.069Z,996.15
2023-03-02T13:34:32.105Z,996.29
2023-03-02T13:35:32.061Z,996.13
2023-03-02T13:36:32.446Z,996.18
2023-03-02T13:37:32.059Z,996.13
2023-03-02T13:38:32.008Z,996.14
2023-03-02T13:39:32.011Z,996.19
2023-03-02T13:40:31.983Z,996.15
2023-03-02T13:41:31.989Z,996.12
2023-03-02T13:42:31.998Z,996.11
2023-03-02T13:43:31.983Z,996.16
2023-03-02T13:44:32.030Z,996.18
2023-03-02T13:45:31.956Z,996.17
2023-03-02T13:46:32.440Z,996.11
2023-03-02T13:47:31.933Z,996.09
2023-03-02T13:48:32.042Z,996.09
2023-03-02T13:49:31.918Z,996.06
2023-03-02T13:50:32.075Z,996.08
2023-03-02T13:51:31.892Z,995.96
2023-03-02T13:52:31.862Z,996.06
2023-03-02T13:53:31.894Z,996.03
2023-03-02T13:54:31.872Z,996.01
2023-03-02T13:55:31.878Z,996.02
2023-03-02T13:56:32.857Z,995.95
2023-03-02T13:57:31.838Z,995.93
2023-03-02T13:58:31.789Z,996.10
2023-03-02T13:59:32.783Z,995.98
2023-03-02T14:00:31.806Z,996.03
2023-03-02T14:01:31.797Z,996.02
2023-03-02T14:02:31.783Z,995.88
2023-03-02T14:03:31.763Z,995.97
2023-03-02T14:04:32.050Z,995.96
2023-03-02T14:05:31.797Z,995.93
2023-03-02T14:06:33.195Z,995.88
2023-03-02T14:07:31.814Z,995.87
2023-03-02T14:08:31.729Z,995.81
2023-03-02T14:09:31.757Z,995.69
2023-03-02T14:10:31.697Z,995.90
2023-03-02T14:11:32.012Z,995.87
2023-03-02T14:12:31.727Z,995.77
2023-03-02T14:13:31.761Z,995.87
2023-03-02T14:14:31.738Z,995.78
2023-03-02T14:15:31.712Z,995.82
2023-03-02T14:16:31.919Z,995.78
2023-03-02T14:17:31.685Z,995.81
2023-03-02T14:18:31.682Z,995.81
2023-03-02T14:19:31.668Z,995.78
2023-03-02T14:20:31.645Z,995.83
2023-03-02T14:21:32.208Z,995.76
2023-03-02T14:22:31.614Z,995.75
2023-03-02T14:23:31.652Z,995.87
2023-03-02T14:24:32.413Z,995.83